sensor_id;sensor_type;location;lat;lon;timestamp;P1;durP1;ratioP1;P2;durP2;ratioP2
2396;SDS011;1209;48.410;9.054;2022-07-29T00:00:56;7.77;;;3.67;;
2396;SDS011;1209;48.410;9.054;2022-07-29T00:03:21;3.77;;;3.40;;
2396;SDS011;1209;48.410;9.054;2022-07-29T00:05:46;3.40;;;3.10;;
2396;SDS011;1209;48.410;9.054;2022-07-29T00:08:12;5.43;;;3.10;;
2396;SDS011;1209;48.410;9.054;2022-07-29T00:10:37;2.73;;;2.37;;
2396;SDS011;1209;48.410;9.054;2022-07-29T00:13:02;3.57;;;3.27;;
2396;SDS011;1209;48.410;9.054;2022-07-29T00:15:28;2.97;;;2.77;;
2396;SDS011;1209;48.410;9.054;2022-07-29T00:17:53;4.97;;;3.00;;
2396;SDS011;1209;48.410;9.054;2022-07-29T00:20:19;3.40;;;3.10;;
2396;SDS011;1209;48.410;9.054;2022-07-29T00:22:44;3.27;;;2.97;;
2396;SDS011;1209;48.410;9.054;2022-07-29T00:25:10;4.40;;;2.40;;
2396;SDS011;1209;48.410;9.054;2022-07-29T00:27:37;2.87;;;2.67;;
2396;SDS011;1209;48.410;9.054;2022-07-29T00:30:03;2.50;;;2.30;;
2396;SDS011;1209;48.410;9.054;2022-07-29T00:32:29;3.00;;;2.43;;
2396;SDS011;1209;48.410;9.054;2022-07-29T00:34:54;2.40;;;2.30;;
2396;SDS011;1209;48.410;9.054;2022-07-29T00:37:38;2.70;;;2.20;;
2396;SDS011;1209;48.410;9.054;2022-07-29T00:40:04;2.33;;;2.13;;
2396;SDS011;1209;48.410;9.054;2022-07-29T00:42:30;2.40;;;2.20;;
2396;SDS011;1209;48.410;9.054;2022-07-29T00:44:55;2.60;;;2.10;;
2396;SDS011;1209;48.410;9.054;2022-07-29T00:47:20;2.50;;;2.30;;
2396;SDS011;1209;48.410;9.054;2022-07-29T00:49:46;2.60;;;2.40;;
2396;SDS011;1209;48.410;9.054;2022-07-29T00:52:12;3.33;;;2.70;;
2396;SDS011;1209;48.410;9.054;2022-07-29T00:54:38;2.50;;;2.37;;
2396;SDS011;1209;48.410;9.054;2022-07-29T00:57:05;2.50;;;2.33;;
2396;SDS011;1209;48.410;9.054;2022-07-29T00:59:32;2.40;;;2.20;;
2396;SDS011;1209;48.410;9.054;2022-07-29T01:01:57;6.83;;;2.40;;
2396;SDS011;1209;48.410;9.054;2022-07-29T01:04:23;3.10;;;2.60;;
2396;SDS011;1209;48.410;9.054;2022-07-29T01:06:49;2.70;;;2.50;;
2396;SDS011;1209;48.410;9.054;2022-07-29T01:09:15;2.70;;;2.50;;
2396;SDS011;1209;48.410;9.054;2022-07-29T01:11:43;2.67;;;2.47;;
2396;SDS011;1209;48.410;9.054;2022-07-29T01:14:09;2.77;;;2.53;;
2396;SDS011;1209;48.410;9.054;2022-07-29T01:16:38;2.43;;;2.23;;
2396;SDS011;1209;48.410;9.054;2022-07-29T01:30:24;2.30;;;2.20;;
2396;SDS011;1209;48.410;9.054;2022-07-29T01:32:59;2.57;;;2.37;;
2396;SDS011;1209;48.410;9.054;2022-07-29T01:35:37;2.80;;;2.60;;
2396;SDS011;1209;48.410;9.054;2022-07-29T01:38:09;2.90;;;2.63;;
2396;SDS011;1209;48.410;9.054;2022-07-29T01:40:40;2.67;;;2.47;;
2396;SDS011;1209;48.410;9.054;2022-07-29T01:43:20;2.57;;;2.37;;
2396;SDS011;1209;48.410;9.054;2022-07-29T01:45:51;3.03;;;2.83;;
2396;SDS011;1209;48.410;9.054;2022-07-29T01:48:23;2.87;;;2.57;;
2396;SDS011;1209;48.410;9.054;2022-07-29T01:51:02;2.70;;;2.50;;
2396;SDS011;1209;48.410;9.054;2022-07-29T01:53:32;3.63;;;2.90;;
2396;SDS011;1209;48.410;9.054;2022-07-29T01:56:00;3.33;;;2.97;;
2396;SDS011;1209;48.410;9.054;2022-07-29T01:58:28;2.70;;;2.60;;
2396;SDS011;1209;48.410;9.054;2022-07-29T02:00:56;3.23;;;2.80;;
2396;SDS011;1209;48.410;9.054;2022-07-29T02:03:23;2.83;;;2.60;;
2396;SDS011;1209;48.410;9.054;2022-07-29T02:05:51;2.50;;;2.30;;
2396;SDS011;1209;48.410;9.054;2022-07-29T02:08:18;2.60;;;2.40;;
2396;SDS011;1209;48.410;9.054;2022-07-29T02:10:45;3.20;;;2.90;;
2396;SDS011;1209;48.410;9.054;2022-07-29T02:13:14;5.17;;;2.90;;
2396;SDS011;1209;48.410;9.054;2022-07-29T02:15:42;2.90;;;2.70;;
2396;SDS011;1209;48.410;9.054;2022-07-29T02:18:11;3.90;;;2.73;;
2396;SDS011;1209;48.410;9.054;2022-07-29T02:20:41;3.30;;;2.97;;
2396;SDS011;1209;48.410;9.054;2022-07-29T02:23:11;2.87;;;2.60;;
2396;SDS011;1209;48.410;9.054;2022-07-29T02:25:39;3.60;;;2.93;;
2396;SDS011;1209;48.410;9.054;2022-07-29T02:28:06;3.00;;;2.80;;
2396;SDS011;1209;48.410;9.054;2022-07-29T02:30:32;3.10;;;2.90;;
2396;SDS011;1209;48.410;9.054;2022-07-29T02:33:01;2.80;;;2.60;;
2396;SDS011;1209;48.410;9.054;2022-07-29T02:35:28;4.13;;;2.87;;
2396;SDS011;1209;48.410;9.054;2022-07-29T02:37:54;3.00;;;2.73;;
2396;SDS011;1209;48.410;9.054;2022-07-29T02:40:39;3.30;;;3.00;;
2396;SDS011;1209;48.410;9.054;2022-07-29T02:43:07;3.20;;;2.90;;
2396;SDS011;1209;48.410;9.054;2022-07-29T02:45:35;3.33;;;3.03;;
2396;SDS011;1209;48.410;9.054;2022-07-29T02:48:04;7.30;;;3.00;;
2396;SDS011;1209;48.410;9.054;2022-07-29T02:50:37;2.63;;;2.43;;
2396;SDS011;1209;48.410;9.054;2022-07-29T02:53:14;2.90;;;2.70;;
2396;SDS011;1209;48.410;9.054;2022-07-29T02:55:44;2.40;;;2.30;;
2396;SDS011;1209;48.410;9.054;2022-07-29T03:01:14;2.30;;;2.10;;
2396;SDS011;1209;48.410;9.054;2022-07-29T03:03:45;3.30;;;3.00;;
2396;SDS011;1209;48.410;9.054;2022-07-29T03:06:13;2.57;;;2.30;;
2396;SDS011;1209;48.410;9.054;2022-07-29T03:08:40;2.80;;;2.60;;
2396;SDS011;1209;48.410;9.054;2022-07-29T03:11:07;3.07;;;2.77;;
2396;SDS011;1209;48.410;9.054;2022-07-29T03:13:34;3.07;;;2.77;;
2396;SDS011;1209;48.410;9.054;2022-07-29T03:16:00;2.77;;;2.53;;
2396;SDS011;1209;48.410;9.054;2022-07-29T03:18:25;3.27;;;3.00;;
2396;SDS011;1209;48.410;9.054;2022-07-29T03:20:51;2.67;;;2.47;;
2396;SDS011;1209;48.410;9.054;2022-07-29T03:23:20;2.57;;;2.37;;
2396;SDS011;1209;48.410;9.054;2022-07-29T03:25:47;2.60;;;2.40;;
2396;SDS011;1209;48.410;9.054;2022-07-29T03:28:14;3.60;;;2.60;;
2396;SDS011;1209;48.410;9.054;2022-07-29T03:30:39;3.30;;;3.00;;
2396;SDS011;1209;48.410;9.054;2022-07-29T03:33:05;4.13;;;2.97;;
2396;SDS011;1209;48.410;9.054;2022-07-29T03:35:30;2.67;;;2.43;;
2396;SDS011;1209;48.410;9.054;2022-07-29T03:37:56;2.70;;;2.50;;
2396;SDS011;1209;48.410;9.054;2022-07-29T03:40:25;2.23;;;2.10;;
2396;SDS011;1209;48.410;9.054;2022-07-29T03:42:55;2.70;;;2.50;;
2396;SDS011;1209;48.410;9.054;2022-07-29T03:45:22;2.70;;;2.50;;
2396;SDS011;1209;48.410;9.054;2022-07-29T03:47:50;3.00;;;2.80;;
2396;SDS011;1209;48.410;9.054;2022-07-29T03:50:18;2.73;;;2.53;;
2396;SDS011;1209;48.410;9.054;2022-07-29T03:52:45;2.33;;;2.23;;
2396;SDS011;1209;48.410;9.054;2022-07-29T03:55:12;3.43;;;2.50;;
2396;SDS011;1209;48.410;9.054;2022-07-29T03:57:39;3.93;;;2.90;;
2396;SDS011;1209;48.410;9.054;2022-07-29T04:00:05;4.20;;;2.87;;
2396;SDS011;1209;48.410;9.054;2022-07-29T04:02:31;4.53;;;2.70;;
2396;SDS011;1209;48.410;9.054;2022-07-29T04:04:58;2.77;;;2.57;;
2396;SDS011;1209;48.410;9.054;2022-07-29T04:07:23;2.90;;;2.70;;
2396;SDS011;1209;48.410;9.054;2022-07-29T04:09:48;3.53;;;3.23;;
2396;SDS011;1209;48.410;9.054;2022-07-29T04:12:14;2.97;;;2.50;;
2396;SDS011;1209;48.410;9.054;2022-07-29T04:14:39;3.30;;;3.00;;
2396;SDS011;1209;48.410;9.054;2022-07-29T04:17:05;3.00;;;2.70;;
2396;SDS011;1209;48.410;9.054;2022-07-29T04:19:30;2.90;;;2.70;;
2396;SDS011;1209;48.410;9.054;2022-07-29T04:21:57;2.77;;;2.57;;
2396;SDS011;1209;48.410;9.054;2022-07-29T04:24:24;4.37;;;2.67;;
2396;SDS011;1209;48.410;9.054;2022-07-29T04:26:50;2.80;;;2.60;;
2396;SDS011;1209;48.410;9.054;2022-07-29T04:29:15;2.23;;;2.10;;
2396;SDS011;1209;48.410;9.054;2022-07-29T04:31:41;3.43;;;2.70;;
2396;SDS011;1209;48.410;9.054;2022-07-29T04:34:07;3.20;;;2.90;;
2396;SDS011;1209;48.410;9.054;2022-07-29T04:36:33;3.07;;;2.63;;
2396;SDS011;1209;48.410;9.054;2022-07-29T04:38:58;3.13;;;2.93;;
2396;SDS011;1209;48.410;9.054;2022-07-29T04:41:24;2.03;;;1.93;;
2396;SDS011;1209;48.410;9.054;2022-07-29T04:43:49;3.07;;;2.83;;
2396;SDS011;1209;48.410;9.054;2022-07-29T04:46:14;3.00;;;2.70;;
2396;SDS011;1209;48.410;9.054;2022-07-29T04:48:40;3.30;;;3.00;;
2396;SDS011;1209;48.410;9.054;2022-07-29T04:51:05;2.60;;;2.40;;
2396;SDS011;1209;48.410;9.054;2022-07-29T04:53:31;3.53;;;3.23;;
2396;SDS011;1209;48.410;9.054;2022-07-29T04:55:57;2.80;;;2.60;;
2396;SDS011;1209;48.410;9.054;2022-07-29T04:58:22;4.67;;;2.83;;
2396;SDS011;1209;48.410;9.054;2022-07-29T05:00:48;3.37;;;3.10;;
2396;SDS011;1209;48.410;9.054;2022-07-29T05:03:14;3.17;;;2.87;;
2396;SDS011;1209;48.410;9.054;2022-07-29T05:05:40;3.17;;;2.93;;
2396;SDS011;1209;48.410;9.054;2022-07-29T05:08:06;2.70;;;2.50;;
2396;SDS011;1209;48.410;9.054;2022-07-29T05:10:31;3.10;;;2.73;;
2396;SDS011;1209;48.410;9.054;2022-07-29T05:12:57;4.13;;;2.80;;
2396;SDS011;1209;48.410;9.054;2022-07-29T05:15:23;2.90;;;2.70;;
2396;SDS011;1209;48.410;9.054;2022-07-29T05:17:48;11.30;;;3.03;;
2396;SDS011;1209;48.410;9.054;2022-07-29T05:20:14;2.80;;;2.60;;
2396;SDS011;1209;48.410;9.054;2022-07-29T05:22:39;3.40;;;3.10;;
2396;SDS011;1209;48.410;9.054;2022-07-29T05:25:05;2.70;;;2.50;;
2396;SDS011;1209;48.410;9.054;2022-07-29T05:27:31;3.30;;;3.00;;
2396;SDS011;1209;48.410;9.054;2022-07-29T05:29:56;2.90;;;2.70;;
2396;SDS011;1209;48.410;9.054;2022-07-29T05:32:21;2.63;;;2.40;;
2396;SDS011;1209;48.410;9.054;2022-07-29T05:34:47;3.10;;;2.80;;
2396;SDS011;1209;48.410;9.054;2022-07-29T05:37:12;4.43;;;3.00;;
2396;SDS011;1209;48.410;9.054;2022-07-29T05:39:38;5.30;;;3.57;;
2396;SDS011;1209;48.410;9.054;2022-07-29T05:42:07;3.67;;;3.37;;
2396;SDS011;1209;48.410;9.054;2022-07-29T05:44:36;3.20;;;2.87;;
2396;SDS011;1209;48.410;9.054;2022-07-29T05:47:02;3.53;;;3.23;;
2396;SDS011;1209;48.410;9.054;2022-07-29T05:49:28;3.17;;;2.87;;
2396;SDS011;1209;48.410;9.054;2022-07-29T05:51:53;3.27;;;2.87;;
2396;SDS011;1209;48.410;9.054;2022-07-29T05:54:18;8.37;;;2.53;;
2396;SDS011;1209;48.410;9.054;2022-07-29T05:56:44;2.97;;;2.50;;
2396;SDS011;1209;48.410;9.054;2022-07-29T05:59:09;3.10;;;2.80;;
2396;SDS011;1209;48.410;9.054;2022-07-29T06:01:34;5.73;;;3.03;;
2396;SDS011;1209;48.410;9.054;2022-07-29T06:04:04;3.20;;;2.90;;
2396;SDS011;1209;48.410;9.054;2022-07-29T06:06:30;5.03;;;3.43;;
2396;SDS011;1209;48.410;9.054;2022-07-29T06:08:55;3.30;;;3.00;;
2396;SDS011;1209;48.410;9.054;2022-07-29T06:11:20;3.23;;;2.97;;
2396;SDS011;1209;48.410;9.054;2022-07-29T06:13:46;3.37;;;2.67;;
2396;SDS011;1209;48.410;9.054;2022-07-29T06:16:11;5.07;;;3.40;;
2396;SDS011;1209;48.410;9.054;2022-07-29T06:18:37;3.87;;;3.27;;
2396;SDS011;1209;48.410;9.054;2022-07-29T06:21:06;2.80;;;2.60;;
2396;SDS011;1209;48.410;9.054;2022-07-29T06:23:33;3.77;;;3.10;;
2396;SDS011;1209;48.410;9.054;2022-07-29T06:25:59;3.37;;;2.47;;
2396;SDS011;1209;48.410;9.054;2022-07-29T06:28:25;3.83;;;2.90;;
2396;SDS011;1209;48.410;9.054;2022-07-29T06:30:51;4.13;;;3.17;;
2396;SDS011;1209;48.410;9.054;2022-07-29T06:33:17;3.20;;;2.90;;
2396;SDS011;1209;48.410;9.054;2022-07-29T06:35:43;3.00;;;2.40;;
2396;SDS011;1209;48.410;9.054;2022-07-29T06:38:11;4.07;;;3.10;;
2396;SDS011;1209;48.410;9.054;2022-07-29T06:40:40;3.00;;;2.70;;
2396;SDS011;1209;48.410;9.054;2022-07-29T06:43:25;3.30;;;3.00;;
2396;SDS011;1209;48.410;9.054;2022-07-29T06:46:05;3.50;;;3.20;;
2396;SDS011;1209;48.410;9.054;2022-07-29T06:48:32;2.63;;;2.43;;
2396;SDS011;1209;48.410;9.054;2022-07-29T06:50:58;2.73;;;2.53;;
2396;SDS011;1209;48.410;9.054;2022-07-29T06:53:24;3.23;;;2.93;;
2396;SDS011;1209;48.410;9.054;2022-07-29T06:55:50;3.83;;;3.07;;
2396;SDS011;1209;48.410;9.054;2022-07-29T06:58:15;2.93;;;2.50;;
2396;SDS011;1209;48.410;9.054;2022-07-29T07:00:43;2.67;;;2.47;;
2396;SDS011;1209;48.410;9.054;2022-07-29T07:03:10;2.60;;;2.40;;
2396;SDS011;1209;48.410;9.054;2022-07-29T07:05:35;2.63;;;2.40;;
2396;SDS011;1209;48.410;9.054;2022-07-29T07:08:01;3.10;;;2.80;;
2396;SDS011;1209;48.410;9.054;2022-07-29T07:10:26;3.50;;;2.40;;
2396;SDS011;1209;48.410;9.054;2022-07-29T07:12:52;2.77;;;2.57;;
2396;SDS011;1209;48.410;9.054;2022-07-29T07:15:17;3.10;;;2.80;;
2396;SDS011;1209;48.410;9.054;2022-07-29T07:17:48;3.30;;;3.00;;
2396;SDS011;1209;48.410;9.054;2022-07-29T07:20:14;3.13;;;2.83;;
2396;SDS011;1209;48.410;9.054;2022-07-29T07:22:40;3.20;;;2.67;;
2396;SDS011;1209;48.410;9.054;2022-07-29T07:25:06;7.90;;;2.90;;
2396;SDS011;1209;48.410;9.054;2022-07-29T07:27:31;3.57;;;2.70;;
2396;SDS011;1209;48.410;9.054;2022-07-29T07:29:57;3.07;;;2.77;;
2396;SDS011;1209;48.410;9.054;2022-07-29T07:32:22;3.43;;;2.67;;
2396;SDS011;1209;48.410;9.054;2022-07-29T07:34:48;3.10;;;2.87;;
2396;SDS011;1209;48.410;9.054;2022-07-29T07:37:14;3.47;;;3.17;;
2396;SDS011;1209;48.410;9.054;2022-07-29T07:39:40;2.97;;;2.77;;
2396;SDS011;1209;48.410;9.054;2022-07-29T07:42:05;3.67;;;2.60;;
2396;SDS011;1209;48.410;9.054;2022-07-29T07:44:31;3.53;;;3.13;;
2396;SDS011;1209;48.410;9.054;2022-07-29T07:46:56;4.20;;;3.63;;
2396;SDS011;1209;48.410;9.054;2022-07-29T07:49:22;4.83;;;3.40;;
2396;SDS011;1209;48.410;9.054;2022-07-29T07:51:47;4.70;;;3.23;;
2396;SDS011;1209;48.410;9.054;2022-07-29T07:54:12;3.83;;;2.90;;
2396;SDS011;1209;48.410;9.054;2022-07-29T07:56:38;3.80;;;3.10;;
2396;SDS011;1209;48.410;9.054;2022-07-29T07:59:03;5.20;;;3.30;;
2396;SDS011;1209;48.410;9.054;2022-07-29T08:01:28;3.57;;;3.27;;
2396;SDS011;1209;48.410;9.054;2022-07-29T08:03:54;3.03;;;2.47;;
2396;SDS011;1209;48.410;9.054;2022-07-29T08:06:19;3.97;;;2.93;;
2396;SDS011;1209;48.410;9.054;2022-07-29T08:08:44;3.13;;;2.83;;
2396;SDS011;1209;48.410;9.054;2022-07-29T08:11:10;3.30;;;3.00;;
2396;SDS011;1209;48.410;9.054;2022-07-29T08:13:35;4.03;;;3.17;;
2396;SDS011;1209;48.410;9.054;2022-07-29T08:16:02;3.60;;;3.30;;
2396;SDS011;1209;48.410;9.054;2022-07-29T08:18:36;4.57;;;3.70;;
2396;SDS011;1209;48.410;9.054;2022-07-29T08:21:03;3.97;;;3.57;;
2396;SDS011;1209;48.410;9.054;2022-07-29T08:23:29;5.40;;;3.20;;
2396;SDS011;1209;48.410;9.054;2022-07-29T08:26:03;5.23;;;3.40;;
2396;SDS011;1209;48.410;9.054;2022-07-29T08:28:29;3.70;;;3.37;;
2396;SDS011;1209;48.410;9.054;2022-07-29T08:30:54;4.13;;;3.73;;
2396;SDS011;1209;48.410;9.054;2022-07-29T08:33:20;4.43;;;4.03;;
2396;SDS011;1209;48.410;9.054;2022-07-29T08:35:45;3.30;;;3.00;;
2396;SDS011;1209;48.410;9.054;2022-07-29T08:38:11;2.93;;;2.70;;
2396;SDS011;1209;48.410;9.054;2022-07-29T08:40:36;3.40;;;3.20;;
2396;SDS011;1209;48.410;9.054;2022-07-29T08:43:08;3.30;;;3.00;;
2396;SDS011;1209;48.410;9.054;2022-07-29T08:45:37;4.53;;;3.30;;
2396;SDS011;1209;48.410;9.054;2022-07-29T08:48:08;3.53;;;3.20;;
2396;SDS011;1209;48.410;9.054;2022-07-29T08:50:34;3.60;;;3.30;;
2396;SDS011;1209;48.410;9.054;2022-07-29T08:53:01;3.00;;;2.70;;
2396;SDS011;1209;48.410;9.054;2022-07-29T08:55:27;10.50;;;3.63;;
2396;SDS011;1209;48.410;9.054;2022-07-29T08:57:53;3.50;;;3.20;;
2396;SDS011;1209;48.410;9.054;2022-07-29T09:00:19;3.83;;;3.53;;
2396;SDS011;1209;48.410;9.054;2022-07-29T09:02:47;3.47;;;3.17;;
2396;SDS011;1209;48.410;9.054;2022-07-29T09:05:16;3.30;;;3.10;;
2396;SDS011;1209;48.410;9.054;2022-07-29T09:07:42;2.93;;;2.73;;
2396;SDS011;1209;48.410;9.054;2022-07-29T09:10:09;3.07;;;2.87;;
2396;SDS011;1209;48.410;9.054;2022-07-29T09:12:35;4.17;;;3.77;;
2396;SDS011;1209;48.410;9.054;2022-07-29T09:15:00;3.90;;;3.60;;
2396;SDS011;1209;48.410;9.054;2022-07-29T09:17:42;4.00;;;3.60;;
2396;SDS011;1209;48.410;9.054;2022-07-29T09:20:21;3.73;;;3.43;;
2396;SDS011;1209;48.410;9.054;2022-07-29T09:22:48;3.80;;;3.50;;
2396;SDS011;1209;48.410;9.054;2022-07-29T09:25:33;3.83;;;3.53;;
2396;SDS011;1209;48.410;9.054;2022-07-29T09:28:05;5.77;;;4.00;;
2396;SDS011;1209;48.410;9.054;2022-07-29T09:30:35;3.93;;;3.63;;
2396;SDS011;1209;48.410;9.054;2022-07-29T09:33:01;4.10;;;3.70;;
2396;SDS011;1209;48.410;9.054;2022-07-29T09:35:28;3.67;;;3.37;;
2396;SDS011;1209;48.410;9.054;2022-07-29T09:37:54;5.17;;;3.67;;
2396;SDS011;1209;48.410;9.054;2022-07-29T09:40:21;4.20;;;3.90;;
2396;SDS011;1209;48.410;9.054;2022-07-29T09:42:49;4.63;;;4.10;;
2396;SDS011;1209;48.410;9.054;2022-07-29T09:45:28;6.17;;;3.97;;
2396;SDS011;1209;48.410;9.054;2022-07-29T09:47:55;3.23;;;3.03;;
2396;SDS011;1209;48.410;9.054;2022-07-29T09:50:34;6.17;;;3.70;;
2396;SDS011;1209;48.410;9.054;2022-07-29T09:53:00;4.13;;;3.83;;
2396;SDS011;1209;48.410;9.054;2022-07-29T09:55:25;5.30;;;3.37;;
2396;SDS011;1209;48.410;9.054;2022-07-29T09:57:51;8.10;;;4.20;;
2396;SDS011;1209;48.410;9.054;2022-07-29T10:00:18;4.40;;;3.23;;
2396;SDS011;1209;48.410;9.054;2022-07-29T10:02:45;4.10;;;3.80;;
2396;SDS011;1209;48.410;9.054;2022-07-29T10:05:21;5.07;;;4.00;;
2396;SDS011;1209;48.410;9.054;2022-07-29T10:07:52;5.53;;;5.10;;
2396;SDS011;1209;48.410;9.054;2022-07-29T10:10:23;4.73;;;3.93;;
2396;SDS011;1209;48.410;9.054;2022-07-29T10:12:51;5.17;;;3.43;;
2396;SDS011;1209;48.410;9.054;2022-07-29T10:15:24;3.93;;;3.57;;
2396;SDS011;1209;48.410;9.054;2022-07-29T10:17:51;4.97;;;3.70;;
2396;SDS011;1209;48.410;9.054;2022-07-29T10:20:18;3.10;;;2.90;;
2396;SDS011;1209;48.410;9.054;2022-07-29T10:22:44;3.80;;;3.50;;
2396;SDS011;1209;48.410;9.054;2022-07-29T10:25:12;4.90;;;3.90;;
2396;SDS011;1209;48.410;9.054;2022-07-29T10:27:38;4.10;;;3.80;;
2396;SDS011;1209;48.410;9.054;2022-07-29T10:30:05;4.17;;;3.77;;
2396;SDS011;1209;48.410;9.054;2022-07-29T10:37:42;3.87;;;3.57;;
2396;SDS011;1209;48.410;9.054;2022-07-29T10:43:14;9.57;;;4.30;;
2396;SDS011;1209;48.410;9.054;2022-07-29T10:45:45;4.30;;;3.90;;
2396;SDS011;1209;48.410;9.054;2022-07-29T10:48:13;3.77;;;3.47;;
2396;SDS011;1209;48.410;9.054;2022-07-29T10:56:22;3.93;;;3.63;;
2396;SDS011;1209;48.410;9.054;2022-07-29T11:01:45;5.00;;;4.13;;
2396;SDS011;1209;48.410;9.054;2022-07-29T11:04:12;4.43;;;4.07;;
2396;SDS011;1209;48.410;9.054;2022-07-29T11:09:31;5.03;;;4.53;;
2396;SDS011;1209;48.410;9.054;2022-07-29T11:11:57;3.97;;;3.63;;
2396;SDS011;1209;48.410;9.054;2022-07-29T11:17:20;3.60;;;3.30;;
2396;SDS011;1209;48.410;9.054;2022-07-29T11:19:46;3.53;;;3.33;;
2396;SDS011;1209;48.410;9.054;2022-07-29T11:22:14;3.40;;;3.20;;
2396;SDS011;1209;48.410;9.054;2022-07-29T11:25:13;4.43;;;4.03;;
2396;SDS011;1209;48.410;9.054;2022-07-29T11:27:39;4.13;;;3.73;;
2396;SDS011;1209;48.410;9.054;2022-07-29T11:30:05;6.03;;;3.90;;
2396;SDS011;1209;48.410;9.054;2022-07-29T11:32:41;4.00;;;3.70;;
2396;SDS011;1209;48.410;9.054;2022-07-29T11:35:15;5.07;;;4.20;;
2396;SDS011;1209;48.410;9.054;2022-07-29T11:37:42;4.17;;;3.30;;
2396;SDS011;1209;48.410;9.054;2022-07-29T11:40:08;3.20;;;2.97;;
2396;SDS011;1209;48.410;9.054;2022-07-29T11:47:47;4.60;;;4.20;;
2396;SDS011;1209;48.410;9.054;2022-07-29T11:50:26;4.50;;;3.87;;
2396;SDS011;1209;48.410;9.054;2022-07-29T11:52:55;4.90;;;4.40;;
2396;SDS011;1209;48.410;9.054;2022-07-29T11:55:22;3.60;;;3.27;;
2396;SDS011;1209;48.410;9.054;2022-07-29T11:57:58;5.10;;;4.37;;
2396;SDS011;1209;48.410;9.054;2022-07-29T12:00:30;3.67;;;3.37;;
2396;SDS011;1209;48.410;9.054;2022-07-29T12:02:59;4.13;;;3.73;;
2396;SDS011;1209;48.410;9.054;2022-07-29T12:05:39;3.47;;;3.27;;
2396;SDS011;1209;48.410;9.054;2022-07-29T12:08:07;3.67;;;3.37;;
2396;SDS011;1209;48.410;9.054;2022-07-29T12:10:37;3.40;;;3.10;;
2396;SDS011;1209;48.410;9.054;2022-07-29T12:13:03;3.60;;;3.30;;
2396;SDS011;1209;48.410;9.054;2022-07-29T12:15:29;3.50;;;3.20;;
2396;SDS011;1209;48.410;9.054;2022-07-29T12:17:54;3.80;;;3.57;;
2396;SDS011;1209;48.410;9.054;2022-07-29T12:20:23;3.87;;;3.57;;
2396;SDS011;1209;48.410;9.054;2022-07-29T12:22:53;3.90;;;3.53;;
2396;SDS011;1209;48.410;9.054;2022-07-29T12:25:20;4.27;;;3.87;;
2396;SDS011;1209;48.410;9.054;2022-07-29T12:27:48;4.37;;;3.90;;
2396;SDS011;1209;48.410;9.054;2022-07-29T12:30:33;3.17;;;2.87;;
2396;SDS011;1209;48.410;9.054;2022-07-29T12:33:00;4.07;;;3.60;;
2396;SDS011;1209;48.410;9.054;2022-07-29T12:35:26;4.73;;;3.50;;
2396;SDS011;1209;48.410;9.054;2022-07-29T12:37:51;3.80;;;3.50;;
2396;SDS011;1209;48.410;9.054;2022-07-29T12:40:18;3.50;;;3.20;;
2396;SDS011;1209;48.410;9.054;2022-07-29T12:45:34;3.97;;;2.97;;
2396;SDS011;1209;48.410;9.054;2022-07-29T12:48:01;4.77;;;4.27;;
2396;SDS011;1209;48.410;9.054;2022-07-29T12:50:26;3.60;;;3.30;;
2396;SDS011;1209;48.410;9.054;2022-07-29T12:52:52;3.17;;;2.87;;
2396;SDS011;1209;48.410;9.054;2022-07-29T12:58:04;7.73;;;4.97;;
2396;SDS011;1209;48.410;9.054;2022-07-29T13:00:30;7.67;;;5.07;;
2396;SDS011;1209;48.410;9.054;2022-07-29T13:02:56;5.90;;;4.77;;
2396;SDS011;1209;48.410;9.054;2022-07-29T13:05:22;5.00;;;4.33;;
2396;SDS011;1209;48.410;9.054;2022-07-29T13:07:47;4.83;;;4.33;;
2396;SDS011;1209;48.410;9.054;2022-07-29T13:10:16;5.17;;;4.30;;
2396;SDS011;1209;48.410;9.054;2022-07-29T13:15:38;4.40;;;4.00;;
2396;SDS011;1209;48.410;9.054;2022-07-29T13:20:52;7.23;;;4.80;;
2396;SDS011;1209;48.410;9.054;2022-07-29T13:23:17;4.50;;;3.63;;
2396;SDS011;1209;48.410;9.054;2022-07-29T13:25:42;4.23;;;3.80;;
2396;SDS011;1209;48.410;9.054;2022-07-29T13:28:08;4.47;;;4.07;;
2396;SDS011;1209;48.410;9.054;2022-07-29T13:30:33;3.70;;;3.40;;
2396;SDS011;1209;48.410;9.054;2022-07-29T13:32:59;3.50;;;3.30;;
2396;SDS011;1209;48.410;9.054;2022-07-29T13:35:24;3.20;;;2.90;;
2396;SDS011;1209;48.410;9.054;2022-07-29T13:37:49;3.80;;;3.50;;
2396;SDS011;1209;48.410;9.054;2022-07-29T13:40:15;4.00;;;3.60;;
2396;SDS011;1209;48.410;9.054;2022-07-29T13:42:41;5.07;;;3.93;;
2396;SDS011;1209;48.410;9.054;2022-07-29T13:45:07;5.50;;;3.87;;
2396;SDS011;1209;48.410;9.054;2022-07-29T13:47:33;3.40;;;3.20;;
2396;SDS011;1209;48.410;9.054;2022-07-29T13:49:59;4.27;;;3.87;;
2396;SDS011;1209;48.410;9.054;2022-07-29T13:52:26;3.90;;;3.50;;
2396;SDS011;1209;48.410;9.054;2022-07-29T13:54:51;4.43;;;3.60;;
2396;SDS011;1209;48.410;9.054;2022-07-29T13:57:19;4.50;;;4.10;;
2396;SDS011;1209;48.410;9.054;2022-07-29T13:59:44;4.80;;;3.80;;
2396;SDS011;1209;48.410;9.054;2022-07-29T14:02:10;3.43;;;3.13;;
2396;SDS011;1209;48.410;9.054;2022-07-29T14:04:37;4.10;;;3.73;;
2396;SDS011;1209;48.410;9.054;2022-07-29T14:07:03;3.77;;;3.40;;
2396;SDS011;1209;48.410;9.054;2022-07-29T14:09:29;4.47;;;4.07;;
2396;SDS011;1209;48.410;9.054;2022-07-29T14:11:54;4.37;;;3.97;;
2396;SDS011;1209;48.410;9.054;2022-07-29T14:14:20;4.60;;;4.20;;
2396;SDS011;1209;48.410;9.054;2022-07-29T14:16:45;4.10;;;3.47;;
2396;SDS011;1209;48.410;9.054;2022-07-29T14:19:11;4.27;;;3.87;;
2396;SDS011;1209;48.410;9.054;2022-07-29T14:21:37;4.43;;;4.13;;
2396;SDS011;1209;48.410;9.054;2022-07-29T14:24:03;5.10;;;4.07;;
2396;SDS011;1209;48.410;9.054;2022-07-29T14:26:29;4.27;;;3.80;;
2396;SDS011;1209;48.410;9.054;2022-07-29T14:28:54;6.87;;;4.03;;
2396;SDS011;1209;48.410;9.054;2022-07-29T14:31:19;5.83;;;4.80;;
2396;SDS011;1209;48.410;9.054;2022-07-29T14:33:45;3.80;;;3.50;;
2396;SDS011;1209;48.410;9.054;2022-07-29T14:36:10;4.70;;;4.30;;
2396;SDS011;1209;48.410;9.054;2022-07-29T14:38:36;5.07;;;4.57;;
2396;SDS011;1209;48.410;9.054;2022-07-29T14:41:02;4.10;;;3.80;;
2396;SDS011;1209;48.410;9.054;2022-07-29T14:43:28;3.87;;;3.57;;
2396;SDS011;1209;48.410;9.054;2022-07-29T14:45:53;4.73;;;3.80;;
2396;SDS011;1209;48.410;9.054;2022-07-29T14:48:19;4.13;;;3.77;;
2396;SDS011;1209;48.410;9.054;2022-07-29T14:50:44;4.30;;;3.90;;
2396;SDS011;1209;48.410;9.054;2022-07-29T14:53:09;4.60;;;4.20;;
2396;SDS011;1209;48.410;9.054;2022-07-29T14:55:37;7.90;;;4.93;;
2396;SDS011;1209;48.410;9.054;2022-07-29T14:58:02;5.03;;;4.50;;
2396;SDS011;1209;48.410;9.054;2022-07-29T15:00:28;4.30;;;3.90;;
2396;SDS011;1209;48.410;9.054;2022-07-29T15:02:57;4.67;;;4.00;;
2396;SDS011;1209;48.410;9.054;2022-07-29T15:05:22;6.53;;;3.93;;
2396;SDS011;1209;48.410;9.054;2022-07-29T15:07:48;3.20;;;3.00;;
2396;SDS011;1209;48.410;9.054;2022-07-29T15:10:13;7.30;;;3.90;;
2396;SDS011;1209;48.410;9.054;2022-07-29T15:12:38;4.23;;;3.83;;
2396;SDS011;1209;48.410;9.054;2022-07-29T15:15:04;4.50;;;4.10;;
2396;SDS011;1209;48.410;9.054;2022-07-29T15:17:29;8.53;;;4.77;;
2396;SDS011;1209;48.410;9.054;2022-07-29T15:19:54;5.03;;;4.60;;
2396;SDS011;1209;48.410;9.054;2022-07-29T15:22:20;4.40;;;4.00;;
2396;SDS011;1209;48.410;9.054;2022-07-29T15:24:45;4.40;;;4.00;;
2396;SDS011;1209;48.410;9.054;2022-07-29T15:27:10;6.17;;;3.57;;
2396;SDS011;1209;48.410;9.054;2022-07-29T15:29:39;6.73;;;5.33;;
2396;SDS011;1209;48.410;9.054;2022-07-29T15:32:08;4.00;;;3.40;;
2396;SDS011;1209;48.410;9.054;2022-07-29T15:34:35;4.17;;;3.77;;
2396;SDS011;1209;48.410;9.054;2022-07-29T15:37:00;4.87;;;4.40;;
2396;SDS011;1209;48.410;9.054;2022-07-29T15:39:25;4.60;;;4.20;;
2396;SDS011;1209;48.410;9.054;2022-07-29T15:41:51;4.60;;;4.20;;
2396;SDS011;1209;48.410;9.054;2022-07-29T15:44:17;3.83;;;3.53;;
2396;SDS011;1209;48.410;9.054;2022-07-29T15:46:43;4.13;;;3.83;;
2396;SDS011;1209;48.410;9.054;2022-07-29T15:49:27;4.03;;;3.73;;
2396;SDS011;1209;48.410;9.054;2022-07-29T15:52:06;4.40;;;4.00;;
2396;SDS011;1209;48.410;9.054;2022-07-29T15:54:33;4.10;;;3.80;;
2396;SDS011;1209;48.410;9.054;2022-07-29T15:57:00;3.77;;;3.47;;
2396;SDS011;1209;48.410;9.054;2022-07-29T15:59:26;4.50;;;4.10;;
2396;SDS011;1209;48.410;9.054;2022-07-29T16:01:52;3.83;;;3.53;;
2396;SDS011;1209;48.410;9.054;2022-07-29T16:04:17;4.10;;;3.70;;
2396;SDS011;1209;48.410;9.054;2022-07-29T16:06:44;3.77;;;3.47;;
2396;SDS011;1209;48.410;9.054;2022-07-29T16:09:10;4.73;;;4.27;;